createdAt,value
2019-03-24T00:01:59.630Z,7.47
2019-03-24T00:04:43.252Z,7.41
2019-03-24T00:07:33.514Z,7.33
2019-03-24T00:10:17.446Z,7.39
2019-03-24T00:13:00.176Z,7.56
2019-03-24T00:16:01.670Z,7.33
2019-03-24T00:18:48.306Z,7.26
2019-03-24T00:21:31.412Z,7.18
2019-03-24T00:24:21.701Z,7.44
2019-03-24T00:27:12.142Z,7.41
2019-03-24T00:30:02.458Z,7.01
2019-03-24T00:32:48.675Z,6.90
2019-03-24T00:35:38.927Z,6.70
2019-03-24T00:38:21.496Z,6.91
2019-03-24T00:41:11.779Z,6.78
2019-03-24T00:43:55.155Z,6.59
2019-03-24T00:46:45.441Z,6.61
2019-03-24T00:49:28.033Z,6.82
2019-03-24T00:52:18.284Z,6.93
2019-03-24T00:55:01.496Z,7.01
2019-03-24T00:57:51.797Z,7.09
2019-03-24T01:01:04.270Z,6.99
2019-03-24T01:03:47.495Z,6.79
2019-03-24T01:06:29.789Z,6.73
2019-03-24T01:09:12.048Z,6.70
2019-03-24T01:12:02.381Z,6.76
2019-03-24T01:18:06.405Z,6.80
2019-03-24T01:20:48.827Z,6.76
2019-03-24T01:23:32.271Z,6.65
2019-03-24T01:26:33.705Z,6.73
2019-03-24T01:29:16.179Z,6.70
2019-03-24T01:32:06.433Z,6.75
2019-03-24T01:34:49.153Z,6.75
2019-03-24T01:37:39.441Z,6.83
2019-03-24T01:40:23.455Z,6.71
2019-03-24T01:46:10.475Z,6.52
2019-03-24T01:49:00.803Z,6.75
2019-03-24T01:51:51.187Z,6.70
2019-03-24T01:54:41.509Z,6.37
2019-03-24T02:00:26.872Z,6.49
2019-03-24T02:03:17.124Z,6.46
2019-03-24T02:06:00.549Z,6.48
2019-03-24T02:08:50.860Z,6.31
2019-03-24T02:11:41.234Z,6.33
2019-03-24T02:14:31.534Z,6.23
2019-03-24T02:17:21.811Z,6.25
2019-03-24T02:20:12.163Z,6.11
2019-03-24T02:22:54.663Z,6.16
2019-03-24T02:25:42.077Z,5.98
2019-03-24T02:28:25.083Z,5.82
2019-03-24T02:31:15.398Z,5.78
2019-03-24T02:37:08.866Z,5.78
2019-03-24T02:39:51.610Z,5.69
2019-03-24T02:42:41.979Z,5.78
2019-03-24T02:45:32.259Z,5.75
2019-03-24T02:48:22.532Z,5.78
2019-03-24T02:51:12.875Z,5.83
2019-03-24T02:54:03.318Z,5.89
2019-03-24T02:56:53.655Z,5.95
2019-03-24T02:59:43.936Z,5.92
2019-03-24T03:02:34.204Z,6.00
2019-03-24T03:08:39.750Z,5.85
2019-03-24T03:11:30.020Z,5.82
2019-03-24T03:14:15.401Z,5.80
2019-03-24T03:17:05.750Z,5.66
2019-03-24T03:19:48.642Z,5.82
2019-03-24T03:22:38.953Z,5.99
2019-03-24T03:25:21.971Z,5.94
2019-03-24T03:28:23.748Z,5.95
2019-03-24T03:31:06.225Z,5.89
2019-03-24T03:33:56.548Z,5.83
2019-03-24T03:36:46.844Z,5.73
2019-03-24T03:39:37.167Z,5.74
2019-03-24T03:42:20.188Z,5.61
2019-03-24T03:45:11.059Z,5.52
2019-03-24T03:48:01.309Z,5.45
2019-03-24T03:50:48.333Z,5.47
2019-03-24T03:53:38.651Z,5.27
2019-03-24T03:56:21.328Z,5.38
2019-03-24T03:59:22.925Z,5.43
2019-03-24T04:02:07.221Z,5.42
2019-03-24T04:04:57.471Z,5.37
2019-03-24T04:07:41.338Z,5.31
2019-03-24T04:10:31.601Z,5.12
2019-03-24T04:13:14.277Z,5.23
2019-03-24T04:16:04.511Z,5.13
2019-03-24T04:18:49.143Z,5.10
2019-03-24T04:21:39.379Z,5.12
2019-03-24T04:24:23.066Z,5.16
2019-03-24T04:27:13.349Z,5.21
2019-03-24T04:29:55.959Z,5.16
2019-03-24T04:32:46.240Z,5.22
2019-03-24T04:35:30.263Z,5.06
2019-03-24T04:38:20.580Z,5.15
2019-03-24T04:41:04.920Z,5.12
2019-03-24T04:43:47.687Z,5.12
2019-03-24T04:46:38.043Z,5.08
2019-03-24T04:49:28.381Z,5.08
2019-03-24T04:52:18.725Z,5.16
2019-03-24T04:58:22.987Z,4.96
2019-03-24T05:01:13.357Z,5.05
2019-03-24T05:04:03.856Z,4.86
2019-03-24T05:06:35.324Z,5.05
2019-03-24T05:12:41.214Z,5.01
2019-03-24T05:15:31.462Z,4.88
2019-03-24T05:18:21.751Z,4.85
2019-03-24T05:21:08.407Z,4.89
2019-03-24T05:23:51.495Z,4.78
2019-03-24T05:26:41.949Z,4.90
2019-03-24T05:29:25.807Z,4.93
2019-03-24T05:32:16.042Z,4.92
2019-03-24T05:35:06.530Z,4.80
2019-03-24T05:37:56.836Z,4.92
2019-03-24T05:40:40.634Z,5.01
2019-03-24T05:43:30.918Z,5.11
2019-03-24T05:46:17.429Z,5.09
2019-03-24T05:49:07.680Z,5.11
2019-03-24T05:51:50.775Z,5.18
2019-03-24T05:54:41.034Z,5.16
2019-03-24T05:57:24.170Z,5.31
2019-03-24T06:00:14.556Z,5.22
2019-03-24T06:02:57.740Z,5.28
2019-03-24T06:05:48.020Z,5.25
2019-03-24T06:08:30.849Z,5.44
2019-03-24T06:11:21.112Z,5.52
2019-03-24T06:14:04.271Z,5.61
2019-03-24T06:16:54.563Z,5.53
2019-03-24T06:19:37.650Z,5.64
2019-03-24T06:22:27.930Z,5.75
2019-03-24T06:25:10.307Z,5.80
2019-03-24T06:28:00.568Z,5.95
2019-03-24T06:30:43.490Z,5.99
2019-03-24T06:33:33.728Z,6.05
2019-03-24T06:36:16.044Z,6.00
2019-03-24T06:39:07.948Z,6.03
2019-03-24T06:41:50.243Z,6.13
2019-03-24T06:47:42.400Z,6.21
2019-03-24T06:50:33.071Z,6.48
2019-03-24T06:53:15.420Z,6.52
2019-03-24T06:56:05.677Z,6.53
2019-03-24T06:58:47.937Z,6.42
2019-03-24T07:01:38.211Z,6.69
2019-03-24T07:04:21.457Z,6.92
2019-03-24T07:07:11.701Z,7.82
2019-03-24T07:09:54.009Z,8.79
2019-03-24T07:12:37.820Z,10.07
2019-03-24T07:15:41.284Z,11.40
2019-03-24T07:18:23.849Z,13.04
2019-03-24T07:21:14.125Z,14.26
2019-03-24T07:23:57.174Z,15.69
2019-03-24T07:26:47.648Z,16.64
2019-03-24T07:29:32.337Z,17.27
2019-03-24T07:32:23.220Z,16.90
2019-03-24T07:35:07.746Z,18.13
2019-03-24T07:37:58.659Z,18.21
2019-03-24T07:40:42.074Z,19.40
2019-03-24T07:43:32.991Z,20.04
2019-03-24T07:46:15.913Z,20.86
2019-03-24T07:48:48.011Z,21.08
2019-03-24T07:51:38.877Z,20.53
2019-03-24T07:54:22.739Z,20.78
2019-03-24T07:57:13.638Z,20.98
2019-03-24T08:00:05.190Z,20.87
2019-03-24T08:02:56.069Z,21.44
2019-03-24T08:05:39.309Z,21.59
2019-03-24T08:08:30.163Z,21.79
2019-03-24T08:11:14.082Z,21.55
2019-03-24T08:14:05.052Z,22.09
2019-03-24T08:17:07.902Z,21.96
2019-03-24T08:19:51.889Z,22.25
2019-03-24T08:22:42.836Z,22.29
2019-03-24T08:28:31.568Z,21.70
2019-03-24T08:31:22.463Z,20.75
2019-03-24T08:33:54.688Z,20.23
2019-03-24T08:36:45.555Z,19.43
2019-03-24T08:39:28.464Z,18.40
2019-03-24T08:42:19.340Z,17.36
2019-03-24T08:45:01.618Z,16.76
2019-03-24T08:47:51.855Z,15.83
2019-03-24T08:50:34.129Z,15.11
2019-03-24T08:53:24.416Z,14.74
2019-03-24T08:56:07.344Z,14.51
2019-03-24T08:58:57.671Z,14.45
2019-03-24T09:01:40.616Z,13.97
2019-03-24T09:07:26.918Z,13.79
2019-03-24T09:10:17.215Z,14.09
2019-03-24T09:13:07.506Z,14.24
2019-03-24T09:15:57.867Z,14.29
2019-03-24T09:18:52.751Z,14.51
2019-03-24T09:21:33.092Z,14.51
2019-03-24T09:24:23.377Z,14.77
2019-03-24T09:27:05.751Z,14.65
2019-03-24T09:29:56.030Z,14.84
2019-03-24T09:32:38.767Z,14.81
2019-03-24T09:35:29.148Z,14.98
2019-03-24T09:38:11.736Z,15.00
2019-03-24T09:41:02.213Z,15.24
2019-03-24T09:43:45.164Z,15.35
2019-03-24T09:46:35.464Z,15.62
2019-03-24T09:49:18.412Z,15.76
2019-03-24T09:52:08.692Z,15.44
2019-03-24T09:54:51.198Z,15.38
2019-03-24T09:57:41.521Z,15.68
2019-03-24T10:00:24.299Z,15.77
2019-03-24T10:03:14.582Z,15.97
2019-03-24T10:05:57.179Z,15.97
2019-03-24T10:08:47.606Z,16.03
2019-03-24T10:11:30.068Z,16.41
2019-03-24T10:14:20.362Z,16.31
2019-03-24T10:17:03.042Z,16.56
2019-03-24T10:19:53.371Z,16.82
2019-03-24T10:22:36.217Z,16.70
2019-03-24T10:25:26.518Z,16.69
2019-03-24T10:28:09.767Z,16.99
2019-03-24T10:31:00.072Z,17.23
2019-03-24T10:37:20.612Z,17.56
2019-03-24T10:40:05.711Z,17.64
2019-03-24T10:42:56.656Z,17.66
2019-03-24T10:45:47.590Z,17.75
2019-03-24T10:48:38.795Z,17.91
2019-03-24T10:51:29.768Z,18.04
2019-03-24T10:54:32.235Z,18.04
2019-03-24T10:57:15.969Z,18.22
2019-03-24T11:00:08.439Z,18.06
2019-03-24T11:02:59.316Z,18.42
2019-03-24T11:05:50.254Z,18.23
2019-03-24T11:08:41.551Z,18.35
2019-03-24T11:11:32.455Z,18.22
2019-03-24T11:14:23.423Z,18.31
2019-03-24T11:17:14.347Z,17.87
2019-03-24T11:20:05.799Z,18.03
2019-03-24T11:22:56.799Z,18.17
2019-03-24T11:25:47.702Z,18.32
2019-03-24T11:31:34.698Z,18.11
2019-03-24T11:34:25.801Z,18.35
2019-03-24T11:37:16.731Z,18.40
2019-03-24T11:40:19.392Z,18.33
2019-03-24T11:46:04.748Z,18.92
2019-03-24T11:48:48.800Z,19.18
2019-03-24T11:51:39.721Z,19.21
2019-03-24T11:54:30.682Z,19.29
2019-03-24T11:57:21.608Z,19.43
2019-03-24T12:03:48.278Z,19.20
2019-03-24T12:06:39.146Z,19.41
2019-03-24T12:09:22.776Z,19.31
2019-03-24T12:12:13.616Z,19.49
2019-03-24T12:14:56.664Z,19.54
2019-03-24T12:17:47.494Z,19.29
2019-03-24T12:20:30.351Z,19.48
2019-03-24T12:23:21.197Z,19.69
2019-03-24T12:26:04.746Z,19.71
2019-03-24T12:28:55.598Z,19.88
2019-03-24T12:31:39.249Z,19.84
2019-03-24T12:34:30.133Z,19.55
2019-03-24T12:37:13.438Z,19.48
2019-03-24T12:40:04.735Z,19.44
2019-03-24T12:42:48.549Z,19.41
2019-03-24T12:45:39.432Z,19.41
2019-03-24T12:48:30.339Z,19.35
2019-03-24T12:51:15.716Z,19.42
2019-03-24T12:54:06.578Z,19.53
2019-03-24T12:56:38.667Z,19.73
2019-03-24T12:59:29.748Z,19.70
2019-03-24T13:02:13.545Z,20.03
2019-03-24T13:05:15.054Z,19.95
2019-03-24T13:08:00.032Z,20.01
2019-03-24T13:10:50.920Z,19.94
2019-03-24T13:13:34.302Z,19.83
2019-03-24T13:16:25.200Z,19.82
2019-03-24T13:19:08.728Z,19.75
2019-03-24T13:21:59.640Z,19.63
2019-03-24T13:24:42.774Z,19.66
2019-03-24T13:27:33.656Z,19.78
2019-03-24T13:30:17.058Z,19.79
2019-03-24T13:33:07.962Z,19.58
2019-03-24T13:39:07.769Z,19.36
2019-03-24T13:41:51.292Z,19.57
2019-03-24T13:44:42.238Z,19.61
2019-03-24T13:47:44.995Z,19.81
2019-03-24T13:50:31.738Z,19.79
2019-03-24T13:53:21.347Z,19.77
2019-03-24T13:56:04.654Z,19.63
2019-03-24T13:58:55.518Z,19.67
2019-03-24T14:01:38.610Z,19.47
2019-03-24T14:04:29.503Z,19.66
2019-03-24T14:07:13.215Z,19.72
2019-03-24T14:12:59.415Z,19.74
2019-03-24T14:18:43.919Z,19.81
2019-03-24T14:21:30.604Z,19.75
2019-03-24T14:24:21.519Z,19.64
2019-03-24T14:27:12.368Z,19.56
2019-03-24T14:30:03.253Z,19.54
2019-03-24T14:32:54.117Z,19.48
2019-03-24T14:35:37.025Z,19.26
2019-03-24T14:38:27.948Z,19.26
2019-03-24T14:41:11.400Z,19.39
2019-03-24T14:44:02.244Z,19.37
2019-03-24T14:46:45.938Z,19.41
2019-03-24T14:49:36.837Z,19.34
2019-03-24T14:52:21.459Z,19.31
2019-03-24T14:55:12.353Z,19.35
2019-03-24T14:57:55.823Z,19.41
2019-03-24T15:04:01.155Z,19.39
2019-03-24T15:07:05.263Z,19.08
2019-03-24T15:09:48.812Z,19.18
2019-03-24T15:12:39.728Z,18.85
2019-03-24T15:15:22.881Z,18.91
2019-03-24T15:18:13.737Z,18.87
2019-03-24T15:21:05.219Z,18.84
2019-03-24T15:23:49.365Z,18.76
2019-03-24T15:26:32.352Z,18.77
2019-03-24T15:29:23.199Z,18.66
2019-03-24T15:32:06.441Z,18.36
2019-03-24T15:34:57.309Z,18.32
2019-03-24T15:37:41.063Z,18.26
2019-03-24T15:40:31.993Z,18.23
2019-03-24T15:43:15.061Z,18.28
2019-03-24T15:46:05.942Z,18.35
2019-03-24T15:48:50.119Z,18.22
2019-03-24T15:51:41.554Z,18.07
2019-03-24T15:54:24.650Z,18.09
2019-03-24T15:57:15.545Z,18.12
2019-03-24T15:59:59.509Z,18.07
2019-03-24T16:02:50.377Z,17.85
2019-03-24T16:05:32.876Z,17.76
2019-03-24T16:08:23.739Z,17.55
2019-03-24T16:11:06.794Z,17.52
2019-03-24T16:13:57.098Z,17.49
2019-03-24T16:16:47.371Z,17.39
2019-03-24T16:19:30.144Z,17.17
2019-03-24T16:22:20.518Z,17.24
2019-03-24T16:25:10.939Z,17.21
2019-03-24T16:28:01.252Z,17.11
2019-03-24T16:30:51.564Z,16.92
2019-03-24T16:33:41.913Z,16.86
2019-03-24T16:36:32.169Z,16.80
2019-03-24T16:39:22.480Z,16.66
2019-03-24T16:42:12.846Z,16.64
2019-03-24T16:45:03.263Z,16.70
2019-03-24T16:47:53.634Z,16.68
2019-03-24T16:50:44.059Z,16.58
2019-03-24T16:53:34.392Z,16.61
2019-03-24T16:56:24.719Z,16.56
2019-03-24T16:59:07.397Z,16.56
2019-03-24T17:01:38.872Z,16.54
2019-03-24T17:04:29.152Z,16.44
2019-03-24T17:07:11.584Z,16.27
2019-03-24T17:10:01.992Z,16.32
2019-03-24T17:12:52.374Z,16.16
2019-03-24T17:15:42.672Z,16.08
2019-03-24T17:18:33.174Z,15.98
2019-03-24T17:21:23.530Z,15.95
2019-03-24T17:24:13.883Z,15.89
2019-03-24T17:27:04.508Z,15.73
2019-03-24T17:29:54.892Z,15.61
2019-03-24T17:32:45.248Z,15.52
2019-03-24T17:35:35.605Z,15.52
2019-03-24T17:38:25.881Z,15.45
2019-03-24T17:41:16.196Z,15.32
2019-03-24T17:43:47.670Z,15.24
2019-03-24T17:46:37.935Z,15.22
2019-03-24T17:49:21.042Z,14.97
2019-03-24T17:52:11.410Z,14.96
2019-03-24T17:55:01.799Z,14.95
2019-03-24T17:57:52.075Z,14.90
2019-03-24T18:00:45.277Z,14.73
2019-03-24T18:03:48.341Z,14.71
2019-03-24T18:09:27.510Z,14.66
2019-03-24T18:12:18.146Z,14.67
2019-03-24T18:15:09.025Z,14.39
2019-03-24T18:18:18.213Z,14.42
2019-03-24T18:21:08.505Z,14.14
2019-03-24T18:23:58.851Z,14.16
2019-03-24T18:26:49.144Z,14.23
2019-03-24T18:29:33.213Z,14.15
2019-03-24T18:32:23.505Z,14.09
2019-03-24T18:35:06.738Z,14.09
2019-03-24T18:37:57.031Z,13.89
2019-03-24T18:40:47.283Z,13.70
2019-03-24T18:43:30.231Z,13.46
2019-03-24T18:46:20.608Z,13.20
2019-03-24T18:52:05.215Z,12.98
2019-03-24T18:54:48.471Z,12.96
2019-03-24T18:57:38.818Z,12.71
2019-03-24T19:00:29.158Z,12.60
2019-03-24T19:03:20.461Z,12.40
2019-03-24T19:06:10.812Z,12.37
2019-03-24T19:11:56.428Z,12.18
2019-03-24T19:17:43.335Z,12.07
2019-03-24T19:20:33.623Z,11.95
2019-03-24T19:23:16.269Z,12.00
2019-03-24T19:25:47.792Z,11.95
2019-03-24T19:28:38.084Z,11.86
2019-03-24T19:31:20.801Z,11.70
2019-03-24T19:34:22.461Z,11.75
2019-03-24T19:37:06.894Z,11.96
2019-03-24T19:42:52.636Z,11.90
2019-03-24T19:45:42.975Z,11.80
2019-03-24T19:48:33.373Z,11.92
2019-03-24T19:51:23.759Z,11.88
2019-03-24T19:54:14.173Z,11.88
2019-03-24T19:57:04.530Z,11.94
2019-03-24T19:59:36.041Z,11.90
2019-03-24T20:02:45.123Z,11.89
2019-03-24T20:05:27.541Z,11.98
2019-03-24T20:08:18.164Z,11.92
2019-03-24T20:16:31.845Z,11.95
2019-03-24T20:19:24.687Z,11.88
2019-03-24T20:22:06.744Z,11.82
2019-03-24T20:24:57.245Z,11.62
2019-03-24T20:27:47.643Z,11.74
2019-03-24T20:30:37.987Z,11.76
2019-03-24T20:33:28.362Z,11.82
2019-03-24T20:36:18.764Z,12.05
2019-03-24T20:39:11.058Z,11.98
2019-03-24T20:42:01.464Z,11.98
2019-03-24T20:44:51.841Z,11.91
2019-03-24T20:47:42.206Z,11.79
2019-03-24T20:50:32.484Z,11.72
2019-03-24T20:53:22.840Z,11.69
2019-03-24T20:56:13.118Z,11.67
2019-03-24T20:58:55.944Z,11.61
2019-03-24T21:04:41.440Z,11.46
2019-03-24T21:07:31.716Z,11.38
2019-03-24T21:10:14.487Z,11.34
2019-03-24T21:13:04.744Z,11.40
2019-03-24T21:15:47.335Z,11.44
2019-03-24T21:18:37.642Z,11.29
2019-03-24T21:21:20.220Z,11.44
2019-03-24T21:24:10.477Z,11.31
2019-03-24T21:26:42.042Z,11.30
2019-03-24T21:29:32.290Z,11.28
2019-03-24T21:32:15.406Z,11.27
2019-03-24T21:38:21.722Z,11.30
2019-03-24T21:41:12.087Z,11.25
2019-03-24T21:44:02.467Z,11.26
2019-03-24T21:46:52.762Z,11.20
2019-03-24T21:53:05.641Z,10.79
2019-03-24T21:55:48.027Z,10.68
2019-03-24T21:58:38.330Z,10.60
2019-03-24T22:01:28.631Z,10.45
2019-03-24T22:04:10.943Z,10.60
2019-03-24T22:07:01.249Z,10.61
2019-03-24T22:09:51.718Z,10.74
2019-03-24T22:12:42.061Z,10.74
2019-03-24T22:15:32.578Z,10.73
2019-03-24T22:18:22.889Z,10.72
2019-03-24T22:21:05.513Z,10.72
2019-03-24T22:23:36.947Z,10.58
2019-03-24T22:26:27.227Z,10.51
2019-03-24T22:29:10.355Z,10.47
2019-03-24T22:32:00.655Z,10.41
2019-03-24T22:34:43.292Z,10.38
2019-03-24T22:37:52.331Z,10.34
2019-03-24T22:40:34.896Z,10.34
2019-03-24T22:43:43.977Z,10.25
2019-03-24T22:46:26.843Z,10.10
2019-03-24T22:49:17.192Z,10.18
2019-03-24T22:52:07.875Z,10.12
2019-03-24T22:54:52.057Z,10.45
2019-03-24T22:58:01.184Z,10.46
2019-03-24T23:01:03.125Z,10.34
2019-03-24T23:03:46.272Z,10.43
2019-03-24T23:06:36.591Z,10.43
2019-03-24T23:09:18.913Z,10.33
2019-03-24T23:12:09.189Z,10.52
2019-03-24T23:14:52.315Z,10.63
2019-03-24T23:17:42.732Z,10.84
2019-03-24T23:20:25.429Z,10.95
2019-03-24T23:23:15.761Z,10.89
2019-03-24T23:25:58.464Z,10.90
2019-03-24T23:28:30.007Z,10.82
2019-03-24T23:31:20.293Z,10.86
2019-03-24T23:34:03.279Z,10.48
2019-03-24T23:36:53.621Z,10.50
2019-03-24T23:42:37.470Z,10.37
2019-03-24T23:48:31.534Z,10.27
2019-03-24T23:51:15.016Z,10.31
2019-03-24T23:54:05.312Z,10.33
2019-03-24T23:56:48.135Z,10.35
2019-03-24T23:59:39.434Z,10.30
